sensor_id;sensor_type;location;lat;lon;timestamp;pressure;altitude;pressure_sealevel;temperature;humidity
9277;BME280;4676;42.678;23.244;2023-04-10T00:00:29;94174.13;;;6.82;nan
9277;BME280;4676;42.678;23.244;2023-04-10T00:02:57;94174.41;;;6.70;nan
9277;BME280;4676;42.678;23.244;2023-04-10T00:05:24;94176.22;;;6.65;nan
9277;BME280;4676;42.678;23.244;2023-04-10T00:07:50;94175.50;;;6.60;nan
9277;BME280;4676;42.678;23.244;2023-04-10T00:10:17;94165.31;;;6.64;nan
9277;BME280;4676;42.678;23.244;2023-04-10T00:12:46;94165.44;;;6.58;nan
9277;BME280;4676;42.678;23.244;2023-04-10T00:15:12;94171.22;;;6.62;nan
9277;BME280;4676;42.678;23.244;2023-04-10T00:17:39;94170.34;;;6.64;nan
9277;BME280;4676;42.678;23.244;2023-04-10T00:20:07;94158.53;;;6.66;nan
9277;BME280;4676;42.678;23.244;2023-04-10T00:22:33;94161.06;;;6.66;nan
9277;BME280;4676;42.678;23.244;2023-04-10T00:25:00;94165.19;;;6.69;nan
9277;BME280;4676;42.678;23.244;2023-04-10T00:27:27;94156.94;;;6.64;nan
9277;BME280;4676;42.678;23.244;2023-04-10T00:29:55;94160.13;;;6.70;nan
9277;BME280;4676;42.678;23.244;2023-04-10T00:32:22;94157.69;;;6.67;nan
9277;BME280;4676;42.678;23.244;2023-04-10T00:34:49;94161.81;;;6.70;nan
9277;BME280;4676;42.678;23.244;2023-04-10T00:37:15;94154.44;;;6.62;nan
9277;BME280;4676;42.678;23.244;2023-04-10T00:39:43;94152.69;;;6.66;nan
9277;BME280;4676;42.678;23.244;2023-04-10T00:42:09;94151.81;;;6.68;nan
9277;BME280;4676;42.678;23.244;2023-04-10T00:44:36;94158.63;;;6.63;nan
9277;BME280;4676;42.678;23.244;2023-04-10T00:47:05;94159.41;;;6.65;nan
9277;BME280;4676;42.678;23.244;2023-04-10T00:49:33;94156.00;;;6.68;nan
9277;BME280;4676;42.678;23.244;2023-04-10T00:52:00;94157.53;;;6.73;nan
9277;BME280;4676;42.678;23.244;2023-04-10T00:54:27;94150.13;;;6.67;nan
9277;BME280;4676;42.678;23.244;2023-04-10T00:56:54;94157.53;;;6.73;nan
9277;BME280;4676;42.678;23.244;2023-04-10T00:59:22;94147.50;;;6.72;nan
9277;BME280;4676;42.678;23.244;2023-04-10T01:01:49;94153.34;;;6.72;nan
9277;BME280;4676;42.678;23.244;2023-04-10T01:04:17;94155.06;;;6.72;nan
9277;BME280;4676;42.678;23.244;2023-04-10T01:06:53;94151.75;;;6.70;nan
9277;BME280;4676;42.678;23.244;2023-04-10T01:09:31;94151.75;;;6.70;nan
9277;BME280;4676;42.678;23.244;2023-04-10T01:12:07;94145.03;;;6.70;nan
9277;BME280;4676;42.678;23.244;2023-04-10T01:14:41;94140.16;;;6.63;nan
9277;BME280;4676;42.678;23.244;2023-04-10T01:17:17;94144.38;;;6.62;nan
9277;BME280;4676;42.678;23.244;2023-04-10T01:20:03;94139.31;;;6.64;nan
9277;BME280;4676;42.678;23.244;2023-04-10T01:22:34;94119.50;;;6.50;nan
9277;BME280;4676;42.678;23.244;2023-04-10T01:25:17;94141.84;;;6.64;nan
9277;BME280;4676;42.678;23.244;2023-04-10T01:27:57;94138.63;;;6.57;nan
9277;BME280;4676;42.678;23.244;2023-04-10T01:30:31;94141.94;;;6.59;nan
9277;BME280;4676;42.678;23.244;2023-04-10T01:33:00;94127.19;;;6.44;nan
9277;BME280;4676;42.678;23.244;2023-04-10T01:35:29;94135.50;;;6.47;nan
9277;BME280;4676;42.678;23.244;2023-04-10T01:37:59;94133.03;;;6.46;nan
9277;BME280;4676;42.678;23.244;2023-04-10T01:40:28;94131.38;;;6.45;nan
9277;BME280;4676;42.678;23.244;2023-04-10T01:42:55;94132.03;;;6.51;nan
9277;BME280;4676;42.678;23.244;2023-04-10T01:45:25;94130.50;;;6.46;nan
9277;BME280;4676;42.678;23.244;2023-04-10T01:47:55;94129.59;;;6.48;nan
9277;BME280;4676;42.678;23.244;2023-04-10T01:50:21;94128.84;;;6.45;nan
9277;BME280;4676;42.678;23.244;2023-04-10T01:52:49;94121.19;;;6.49;nan
9277;BME280;4676;42.678;23.244;2023-04-10T01:55:16;94136.00;;;6.62;nan
9277;BME280;4676;42.678;23.244;2023-04-10T01:57:44;94135.19;;;6.61;nan
9277;BME280;4676;42.678;23.244;2023-04-10T02:00:13;94135.09;;;6.64;nan
9277;BME280;4676;42.678;23.244;2023-04-10T02:02:40;94136.22;;;6.52;nan
9277;BME280;4676;42.678;23.244;2023-04-10T02:05:09;94134.56;;;6.51;nan
9277;BME280;4676;42.678;23.244;2023-04-10T02:07:41;94136.19;;;6.54;nan
9277;BME280;4676;42.678;23.244;2023-04-10T02:10:12;94131.03;;;6.59;nan
9277;BME280;4676;42.678;23.244;2023-04-10T02:12:45;94128.66;;;6.52;nan
9277;BME280;4676;42.678;23.244;2023-04-10T02:15:15;94130.28;;;6.55;nan
9277;BME280;4676;42.678;23.244;2023-04-10T02:17:45;94129.41;;;6.56;nan
9277;BME280;4676;42.678;23.244;2023-04-10T02:20:13;94121.03;;;6.56;nan
9277;BME280;4676;42.678;23.244;2023-04-10T02:22:43;94121.72;;;6.62;nan
9277;BME280;4676;42.678;23.244;2023-04-10T02:25:10;94123.38;;;6.63;nan
9277;BME280;4676;42.678;23.244;2023-04-10T02:27:38;94122.38;;;6.69;nan
9277;BME280;4676;42.678;23.244;2023-04-10T02:30:06;94111.34;;;6.74;nan
9277;BME280;4676;42.678;23.244;2023-04-10T02:32:33;94111.28;;;6.77;nan
9277;BME280;4676;42.678;23.244;2023-04-10T02:34:59;94110.06;;;6.58;nan
9277;BME280;4676;42.678;23.244;2023-04-10T02:37:28;94105.75;;;6.63;nan
9277;BME280;4676;42.678;23.244;2023-04-10T02:39:55;94106.66;;;6.61;nan
9277;BME280;4676;42.678;23.244;2023-04-10T02:42:22;94102.28;;;6.67;nan
9277;BME280;4676;42.678;23.244;2023-04-10T02:44:48;94099.06;;;6.62;nan
9277;BME280;4676;42.678;23.244;2023-04-10T02:47:15;94101.72;;;6.58;nan
9277;BME280;4676;42.678;23.244;2023-04-10T02:49:43;94093.34;;;6.56;nan
9277;BME280;4676;42.678;23.244;2023-04-10T02:52:09;94099.22;;;6.56;nan
9277;BME280;4676;42.678;23.244;2023-04-10T02:54:38;94095.00;;;6.57;nan
9277;BME280;4676;42.678;23.244;2023-04-10T02:57:04;94088.41;;;6.51;nan
9277;BME280;4676;42.678;23.244;2023-04-10T02:59:31;94090.19;;;6.47;nan
9277;BME280;4676;42.678;23.244;2023-04-10T03:01:58;94084.47;;;6.41;nan
9277;BME280;4676;42.678;23.244;2023-04-10T03:04:25;94073.78;;;6.33;nan
9277;BME280;4676;42.678;23.244;2023-04-10T03:06:52;94089.75;;;6.32;nan
9277;BME280;4676;42.678;23.244;2023-04-10T03:09:19;94091.41;;;6.33;nan
9277;BME280;4676;42.678;23.244;2023-04-10T03:11:47;94080.44;;;6.34;nan
9277;BME280;4676;42.678;23.244;2023-04-10T03:14:14;94071.53;;;6.21;nan
9277;BME280;4676;42.678;23.244;2023-04-10T03:16:41;94094.13;;;6.24;nan
9277;BME280;4676;42.678;23.244;2023-04-10T03:19:07;94086.41;;;6.30;nan
9277;BME280;4676;42.678;23.244;2023-04-10T03:21:34;94075.22;;;6.08;nan
9277;BME280;4676;42.678;23.244;2023-04-10T03:24:01;94091.06;;;6.11;nan
9277;BME280;4676;42.678;23.244;2023-04-10T03:26:28;94089.31;;;6.15;nan
9277;BME280;4676;42.678;23.244;2023-04-10T03:28:56;94090.56;;;5.97;nan
9277;BME280;4676;42.678;23.244;2023-04-10T03:31:22;94095.66;;;5.94;nan
9277;BME280;4676;42.678;23.244;2023-04-10T03:33:49;94092.38;;;5.90;nan
9277;BME280;4676;42.678;23.244;2023-04-10T03:36:16;94095.19;;;5.77;nan
9277;BME280;4676;42.678;23.244;2023-04-10T03:38:43;94072.13;;;5.57;nan
9277;BME280;4676;42.678;23.244;2023-04-10T03:41:09;94095.34;;;5.68;nan
9277;BME280;4676;42.678;23.244;2023-04-10T03:43:36;94093.69;;;5.67;nan
9277;BME280;4676;42.678;23.244;2023-04-10T03:46:04;94098.94;;;5.58;nan
9277;BME280;4676;42.678;23.244;2023-04-10T03:48:31;94072.41;;;5.44;nan
9277;BME280;4676;42.678;23.244;2023-04-10T03:50:58;94104.88;;;5.53;nan
9277;BME280;4676;42.678;23.244;2023-04-10T03:53:25;94099.94;;;5.49;nan
9277;BME280;4676;42.678;23.244;2023-04-10T03:55:51;94081.88;;;5.32;nan
9277;BME280;4676;42.678;23.244;2023-04-10T03:58:18;94107.47;;;5.50;nan
9277;BME280;4676;42.678;23.244;2023-04-10T04:00:45;94107.66;;;5.41;nan
9277;BME280;4676;42.678;23.244;2023-04-10T04:03:13;94088.50;;;5.36;nan
9277;BME280;4676;42.678;23.244;2023-04-10T04:05:40;94101.81;;;5.39;nan
9277;BME280;4676;42.678;23.244;2023-04-10T04:08:07;94107.69;;;5.38;nan
9277;BME280;4676;42.678;23.244;2023-04-10T04:10:33;94123.59;;;5.39;nan
9277;BME280;4676;42.678;23.244;2023-04-10T04:13:00;94117.56;;;5.47;nan
9277;BME280;4676;42.678;23.244;2023-04-10T04:15:27;94119.03;;;5.59;nan
9277;BME280;4676;42.678;23.244;2023-04-10T04:17:54;94116.53;;;5.56;nan
9277;BME280;4676;42.678;23.244;2023-04-10T04:20:22;94116.50;;;5.59;nan
9277;BME280;4676;42.678;23.244;2023-04-10T04:22:49;94121.25;;;5.71;nan
9277;BME280;4676;42.678;23.244;2023-04-10T04:25:15;94119.81;;;5.60;nan
9277;BME280;4676;42.678;23.244;2023-04-10T04:27:44;94122.31;;;5.63;nan
9277;BME280;4676;42.678;23.244;2023-04-10T04:30:11;94128.09;;;5.66;nan
9277;BME280;4676;42.678;23.244;2023-04-10T04:32:37;94115.53;;;5.66;nan
9277;BME280;4676;42.678;23.244;2023-04-10T04:35:05;94125.38;;;5.74;nan
9277;BME280;4676;42.678;23.244;2023-04-10T04:37:33;94128.56;;;5.83;nan
9277;BME280;4676;42.678;23.244;2023-04-10T04:40:00;94130.06;;;5.92;nan
9277;BME280;4676;42.678;23.244;2023-04-10T04:42:27;94128.38;;;5.94;nan
9277;BME280;4676;42.678;23.244;2023-04-10T04:44:53;94136.53;;;6.02;nan
9277;BME280;4676;42.678;23.244;2023-04-10T04:47:20;94128.88;;;6.08;nan
9277;BME280;4676;42.678;23.244;2023-04-10T04:49:48;94136.94;;;6.22;nan
9277;BME280;4676;42.678;23.244;2023-04-10T04:52:15;94135.97;;;6.28;nan
9277;BME280;4676;42.678;23.244;2023-04-10T04:54:43;94141.84;;;6.27;nan
9277;BME280;4676;42.678;23.244;2023-04-10T04:57:10;94139.97;;;6.36;nan
9277;BME280;4676;42.678;23.244;2023-04-10T04:59:36;94145.53;;;6.49;nan
9277;BME280;4676;42.678;23.244;2023-04-10T05:02:03;94146.38;;;6.49;nan
9277;BME280;4676;42.678;23.244;2023-04-10T05:04:30;94151.22;;;6.57;nan
9277;BME280;4676;42.678;23.244;2023-04-10T05:06:56;94152.19;;;6.51;nan
9277;BME280;4676;42.678;23.244;2023-04-10T05:09:23;94148.56;;;6.63;nan
9277;BME280;4676;42.678;23.244;2023-04-10T05:11:51;94156.19;;;6.60;nan
9277;BME280;4676;42.678;23.244;2023-04-10T05:14:19;94158.59;;;6.65;nan
9277;BME280;4676;42.678;23.244;2023-04-10T05:16:46;94155.09;;;6.70;nan
9277;BME280;4676;42.678;23.244;2023-04-10T05:19:13;94155.13;;;6.69;nan
9277;BME280;4676;42.678;23.244;2023-04-10T05:21:39;94152.91;;;6.57;nan
9277;BME280;4676;42.678;23.244;2023-04-10T05:24:06;94157.38;;;6.44;nan
9277;BME280;4676;42.678;23.244;2023-04-10T05:26:33;94161.66;;;6.40;nan
9277;BME280;4676;42.678;23.244;2023-04-10T05:29:01;94150.50;;;6.52;nan
9277;BME280;4676;42.678;23.244;2023-04-10T05:31:28;94147.13;;;6.53;nan
9277;BME280;4676;42.678;23.244;2023-04-10T05:33:55;94156.19;;;6.60;nan
9277;BME280;4676;42.678;23.244;2023-04-10T05:36:21;94160.72;;;6.46;nan
9277;BME280;4676;42.678;23.244;2023-04-10T05:38:48;94154.63;;;6.54;nan
9277;BME280;4676;42.678;23.244;2023-04-10T05:41:15;94158.69;;;6.60;nan
9277;BME280;4676;42.678;23.244;2023-04-10T05:43:42;94156.97;;;6.62;nan
9277;BME280;4676;42.678;23.244;2023-04-10T05:46:10;94158.53;;;6.68;nan
9277;BME280;4676;42.678;23.244;2023-04-10T05:48:37;94158.53;;;6.66;nan
9277;BME280;4676;42.678;23.244;2023-04-10T05:51:05;94155.78;;;6.77;nan
9277;BME280;4676;42.678;23.244;2023-04-10T05:53:31;94156.69;;;6.74;nan
9277;BME280;4676;42.678;23.244;2023-04-10T05:55:58;94165.75;;;6.81;nan
9277;BME280;4676;42.678;23.244;2023-04-10T05:58:26;94165.41;;;6.95;nan
9277;BME280;4676;42.678;23.244;2023-04-10T06:00:54;94169.41;;;7.02;nan
9277;BME280;4676;42.678;23.244;2023-04-10T06:03:22;94169.25;;;7.08;nan
9277;BME280;4676;42.678;23.244;2023-04-10T06:05:51;94170.16;;;7.06;nan
9277;BME280;4676;42.678;23.244;2023-04-10T06:08:18;94172.78;;;7.01;nan
9277;BME280;4676;42.678;23.244;2023-04-10T06:10:45;94167.53;;;7.10;nan
9277;BME280;4676;42.678;23.244;2023-04-10T06:13:12;94167.72;;;7.02;nan
9277;BME280;4676;42.678;23.244;2023-04-10T06:15:39;94164.72;;;6.88;nan
9277;BME280;4676;42.678;23.244;2023-04-10T06:18:06;94171.25;;;6.95;nan
9277;BME280;4676;42.678;23.244;2023-04-10T06:20:34;94159.88;;;7.13;nan
9277;BME280;4676;42.678;23.244;2023-04-10T06:23:01;94156.38;;;7.19;nan
9277;BME280;4676;42.678;23.244;2023-04-10T06:25:28;94154.88;;;7.42;nan
9277;BME280;4676;42.678;23.244;2023-04-10T06:27:55;94150.56;;;7.47;nan
9277;BME280;4676;42.678;23.244;2023-04-10T06:30:22;94145.94;;;7.63;nan
9277;BME280;4676;42.678;23.244;2023-04-10T06:32:48;94144.84;;;7.72;nan
9277;BME280;4676;42.678;23.244;2023-04-10T06:35:15;94145.19;;;7.89;nan
9277;BME280;4676;42.678;23.244;2023-04-10T06:37:43;94151.97;;;7.87;nan
9277;BME280;4676;42.678;23.244;2023-04-10T06:40:12;94151.22;;;8.13;nan
9277;BME280;4676;42.678;23.244;2023-04-10T06:42:39;94157.06;;;8.13;nan
9277;BME280;4676;42.678;23.244;2023-04-10T06:45:07;94135.59;;;8.00;nan
9277;BME280;4676;42.678;23.244;2023-04-10T06:47:34;94150.28;;;8.15;nan
9277;BME280;4676;42.678;23.244;2023-04-10T06:50:01;94158.41;;;8.25;nan
9277;BME280;4676;42.678;23.244;2023-04-10T06:52:27;94166.38;;;8.13;nan
9277;BME280;4676;42.678;23.244;2023-04-10T06:54:56;94162.06;;;8.16;nan
9277;BME280;4676;42.678;23.244;2023-04-10T06:57:22;94127.25;;;7.98;nan
9277;BME280;4676;42.678;23.244;2023-04-10T06:59:49;94162.09;;;8.15;nan
9277;BME280;4676;42.678;23.244;2023-04-10T07:02:16;94164.22;;;7.99;nan
9277;BME280;4676;42.678;23.244;2023-04-10T07:04:43;94172.28;;;8.12;nan
9277;BME280;4676;42.678;23.244;2023-04-10T07:07:09;94165.69;;;8.06;nan
9277;BME280;4676;42.678;23.244;2023-04-10T07:09:37;94166.13;;;8.20;nan
9277;BME280;4676;42.678;23.244;2023-04-10T07:12:06;94161.13;;;8.19;nan
9277;BME280;4676;42.678;23.244;2023-04-10T07:14:33;94164.81;;;8.36;nan
9277;BME280;4676;42.678;23.244;2023-04-10T07:17:00;94158.25;;;8.31;nan
9277;BME280;4676;42.678;23.244;2023-04-10T07:19:26;94164.19;;;8.30;nan
9277;BME280;4676;42.678;23.244;2023-04-10T07:21:53;94155.47;;;8.40;nan
9277;BME280;4676;42.678;23.244;2023-04-10T07:24:20;94159.63;;;8.41;nan
9277;BME280;4676;42.678;23.244;2023-04-10T07:26:47;94163.13;;;8.37;nan
9277;BME280;4676;42.678;23.244;2023-04-10T07:29:15;94165.56;;;8.40;nan
9277;BME280;4676;42.678;23.244;2023-04-10T07:31:44;94164.53;;;8.45;nan
9277;BME280;4676;42.678;23.244;2023-04-10T07:34:29;94166.06;;;8.51;nan
9277;BME280;4676;42.678;23.244;2023-04-10T07:36:56;94160.75;;;8.59;nan
9277;BME280;4676;42.678;23.244;2023-04-10T07:39:23;94161.69;;;8.56;nan
9277;BME280;4676;42.678;23.244;2023-04-10T07:41:52;94170.72;;;8.63;nan
9277;BME280;4676;42.678;23.244;2023-04-10T07:44:20;94140.88;;;8.48;nan
9277;BME280;4676;42.678;23.244;2023-04-10T07:46:46;94163.97;;;8.64;nan
9277;BME280;4676;42.678;23.244;2023-04-10T07:49:13;94166.56;;;8.87;nan
9277;BME280;4676;42.678;23.244;2023-04-10T07:51:40;94163.06;;;9.17;nan
9277;BME280;4676;42.678;23.244;2023-04-10T07:54:07;94162.25;;;9.40;nan
9277;BME280;4676;42.678;23.244;2023-04-10T07:56:33;94165.66;;;9.64;nan
9277;BME280;4676;42.678;23.244;2023-04-10T07:59:01;94162.97;;;9.91;nan
9277;BME280;4676;42.678;23.244;2023-04-10T08:01:29;94160.88;;;10.26;nan
9277;BME280;4676;42.678;23.244;2023-04-10T08:03:56;94158.03;;;10.33;nan
9277;BME280;4676;42.678;23.244;2023-04-10T08:06:22;94167.09;;;10.39;nan
9277;BME280;4676;42.678;23.244;2023-04-10T08:08:50;94164.13;;;9.83;nan
9277;BME280;4676;42.678;23.244;2023-04-10T08:11:24;94162.19;;;9.89;nan
9277;BME280;4676;42.678;23.244;2023-04-10T08:13:52;94155.91;;;9.76;nan
9277;BME280;4676;42.678;23.244;2023-04-10T08:16:22;94161.97;;;9.72;nan
9277;BME280;4676;42.678;23.244;2023-04-10T08:18:50;94168.91;;;9.90;nan
9277;BME280;4676;42.678;23.244;2023-04-10T08:21:17;94148.53;;;9.93;nan
9277;BME280;4676;42.678;23.244;2023-04-10T08:23:44;94168.88;;;9.92;nan
9277;BME280;4676;42.678;23.244;2023-04-10T08:26:11;94158.38;;;10.01;nan
9277;BME280;4676;42.678;23.244;2023-04-10T08:28:38;94156.91;;;9.95;nan
9277;BME280;4676;42.678;23.244;2023-04-10T08:31:06;94158.44;;;9.99;nan
9277;BME280;4676;42.678;23.244;2023-04-10T08:33:32;94155.41;;;10.13;nan
9277;BME280;4676;42.678;23.244;2023-04-10T08:38:38;94160.88;;;10.26;nan
9277;BME280;4676;42.678;23.244;2023-04-10T08:41:05;94158.38;;;10.46;nan
9277;BME280;4676;42.678;23.244;2023-04-10T08:43:32;94158.75;;;10.37;nan
9277;BME280;4676;42.678;23.244;2023-04-10T08:46:00;94141.56;;;10.23;nan
9277;BME280;4676;42.678;23.244;2023-04-10T08:48:30;94150.91;;;10.21;nan
9277;BME280;4676;42.678;23.244;2023-04-10T08:51:03;94159.78;;;10.31;nan
9277;BME280;4676;42.678;23.244;2023-04-10T08:53:30;94154.88;;;10.50;nan
9277;BME280;4676;42.678;23.244;2023-04-10T08:56:06;94151.09;;;10.60;nan
9277;BME280;4676;42.678;23.244;2023-04-10T08:58:34;94155.81;;;10.47;nan
9277;BME280;4676;42.678;23.244;2023-04-10T09:01:03;94159.25;;;10.45;nan
9277;BME280;4676;42.678;23.244;2023-04-10T09:03:31;94148.50;;;10.18;nan
9277;BME280;4676;42.678;23.244;2023-04-10T09:06:01;94146.84;;;10.39;nan
9277;BME280;4676;42.678;23.244;2023-04-10T09:08:28;94156.94;;;10.40;nan
9277;BME280;4676;42.678;23.244;2023-04-10T09:10:55;94152.50;;;10.45;nan
9277;BME280;4676;42.678;23.244;2023-04-10T09:13:36;94115.44;;;10.43;nan
9277;BME280;4676;42.678;23.244;2023-04-10T09:16:04;94143.28;;;10.86;nan
9277;BME280;4676;42.678;23.244;2023-04-10T09:18:44;94140.75;;;10.86;nan
9277;BME280;4676;42.678;23.244;2023-04-10T09:21:13;94137.34;;;11.08;nan
9277;BME280;4676;42.678;23.244;2023-04-10T09:23:41;94133.06;;;11.28;nan
9277;BME280;4676;42.678;23.244;2023-04-10T09:26:24;94102.88;;;11.61;nan
9277;BME280;4676;42.678;23.244;2023-04-10T09:29:03;94106.78;;;11.68;nan
9277;BME280;4676;42.678;23.244;2023-04-10T09:31:32;94107.22;;;11.59;nan
9277;BME280;4676;42.678;23.244;2023-04-10T09:34:10;94108.09;;;11.58;nan
9277;BME280;4676;42.678;23.244;2023-04-10T09:36:37;94129.97;;;11.22;nan
9277;BME280;4676;42.678;23.244;2023-04-10T09:39:06;94104.78;;;11.17;nan
9277;BME280;4676;42.678;23.244;2023-04-10T09:41:33;94124.19;;;10.78;nan
9277;BME280;4676;42.678;23.244;2023-04-10T09:44:09;94118.75;;;10.87;nan
9277;BME280;4676;42.678;23.244;2023-04-10T09:46:37;94126.41;;;10.85;nan
9277;BME280;4676;42.678;23.244;2023-04-10T09:49:03;94127.56;;;10.98;nan
9277;BME280;4676;42.678;23.244;2023-04-10T09:51:32;94131.75;;;11.20;nan
9277;BME280;4676;42.678;23.244;2023-04-10T09:54:00;94130.13;;;11.19;nan
9277;BME280;4676;42.678;23.244;2023-04-10T09:56:28;94128.06;;;11.27;nan
9277;BME280;4676;42.678;23.244;2023-04-10T09:58:57;94126.53;;;11.02;nan
9277;BME280;4676;42.678;23.244;2023-04-10T10:01:27;94137.53;;;10.61;nan
9277;BME280;4676;42.678;23.244;2023-04-10T10:03:54;94086.88;;;10.39;nan
9277;BME280;4676;42.678;23.244;2023-04-10T10:06:22;94111.88;;;10.69;nan
9277;BME280;4676;42.678;23.244;2023-04-10T10:08:50;94128.72;;;10.70;nan
9277;BME280;4676;42.678;23.244;2023-04-10T10:11:20;94136.56;;;10.64;nan
9277;BME280;4676;42.678;23.244;2023-04-10T10:13:49;94100.84;;;10.28;nan
9277;BME280;4676;42.678;23.244;2023-04-10T10:16:20;94068.72;;;10.70;nan
9277;BME280;4676;42.678;23.244;2023-04-10T10:18:55;94116.25;;;11.46;nan
9277;BME280;4676;42.678;23.244;2023-04-10T10:21:25;94107.84;;;11.64;nan
9277;BME280;4676;42.678;23.244;2023-04-10T10:23:55;94112.16;;;11.62;nan
9277;BME280;4676;42.678;23.244;2023-04-10T10:26:24;94108.84;;;11.99;nan
9277;BME280;4676;42.678;23.244;2023-04-10T10:28:51;94101.97;;;12.20;nan
9277;BME280;4676;42.678;23.244;2023-04-10T10:31:18;94095.78;;;12.42;nan
9277;BME280;4676;42.678;23.244;2023-04-10T10:33:46;94096.63;;;12.60;nan
9277;BME280;4676;42.678;23.244;2023-04-10T10:36:15;94091.28;;;12.66;nan
9277;BME280;4676;42.678;23.244;2023-04-10T10:38:49;94093.00;;;12.66;nan
9277;BME280;4676;42.678;23.244;2023-04-10T10:41:25;94088.88;;;12.10;nan
9277;BME280;4676;42.678;23.244;2023-04-10T10:44:00;94098.16;;;11.53;nan
9277;BME280;4676;42.678;23.244;2023-04-10T10:46:36;94082.78;;;10.77;nan
9277;BME280;4676;42.678;23.244;2023-04-10T10:49:06;94084.72;;;10.72;nan
9277;BME280;4676;42.678;23.244;2023-04-10T10:51:45;94083.13;;;10.90;nan
9277;BME280;4676;42.678;23.244;2023-04-10T10:54:30;94084.22;;;11.05;nan
9277;BME280;4676;42.678;23.244;2023-04-10T10:56:57;94071.72;;;10.80;nan
9277;BME280;4676;42.678;23.244;2023-04-10T10:59:52;94072.78;;;10.54;nan
9277;BME280;4676;42.678;23.244;2023-04-10T11:02:19;94072.13;;;10.49;nan
9277;BME280;4676;42.678;23.244;2023-04-10T11:04:47;94060.09;;;10.34;nan
9277;BME280;4676;42.678;23.244;2023-04-10T11:07:16;94061.91;;;10.30;nan
9277;BME280;4676;42.678;23.244;2023-04-10T11:09:48;94062.03;;;10.27;nan
9277;BME280;4676;42.678;23.244;2023-04-10T11:12:15;94064.03;;;10.41;nan
9277;BME280;4676;42.678;23.244;2023-04-10T11:14:43;94064.47;;;10.50;nan
9277;BME280;4676;42.678;23.244;2023-04-10T11:17:11;94051.25;;;10.64;nan
9277;BME280;4676;42.678;23.244;2023-04-10T11:19:57;94056.41;;;11.22;nan
9277;BME280;4676;42.678;23.244;2023-04-10T11:22:26;94051.91;;;11.66;nan
9277;BME280;4676;42.678;23.244;2023-04-10T11:24:58;94058.09;;;11.79;nan
9277;BME280;4676;42.678;23.244;2023-04-10T11:27:45;94042.72;;;11.63;nan
9277;BME280;4676;42.678;23.244;2023-04-10T11:30:30;94036.09;;;12.15;nan
9277;BME280;4676;42.678;23.244;2023-04-10T11:32:57;94043.66;;;11.81;nan
9277;BME280;4676;42.678;23.244;2023-04-10T11:35:25;94038.19;;;11.71;nan
9277;BME280;4676;42.678;23.244;2023-04-10T11:41:01;94041.97;;;11.03;65.02
9277;BME280;4676;42.678;23.244;2023-04-10T11:43:30;94046.44;;;10.78;64.83
9277;BME280;4676;42.678;23.244;2023-04-10T11:45:59;94045.53;;;10.59;63.44
9277;BME280;4676;42.678;23.244;2023-04-10T11:48:26;94043.63;;;10.44;63.87
9277;BME280;4676;42.678;23.244;2023-04-10T11:50:53;94039.56;;;10.40;64.23
9277;BME280;4676;42.678;23.244;2023-04-10T11:53:20;94045.78;;;10.53;65.23
9277;BME280;4676;42.678;23.244;2023-04-10T11:55:47;94044.38;;;10.66;65.37
9277;BME280;4676;42.678;23.244;2023-04-10T11:58:23;94028.09;;;10.92;66.54
9277;BME280;4676;42.678;23.244;2023-04-10T12:01:01;94039.81;;;11.15;66.00
9277;BME280;4676;42.678;23.244;2023-04-10T12:03:32;94028.31;;;11.45;66.34
9277;BME280;4676;42.678;23.244;2023-04-10T12:05:59;94028.03;;;11.51;64.72
9277;BME280;4676;42.678;23.244;2023-04-10T12:08:36;94013.91;;;11.45;65.82
9277;BME280;4676;42.678;23.244;2023-04-10T12:11:03;94018.09;;;11.28;67.05
9277;BME280;4676;42.678;23.244;2023-04-10T12:13:31;93994.41;;;11.09;70.71
9277;BME280;4676;42.678;23.244;2023-04-10T12:15:59;94027.28;;;11.12;71.46
9277;BME280;4676;42.678;23.244;2023-04-10T12:18:27;94021.31;;;10.92;73.05
9277;BME280;4676;42.678;23.244;2023-04-10T12:20:54;94019.44;;;10.57;72.04
9277;BME280;4676;42.678;23.244;2023-04-10T12:23:22;94023.38;;;10.44;75.78
9277;BME280;4676;42.678;23.244;2023-04-10T12:25:49;94028.03;;;10.33;78.82
9277;BME280;4676;42.678;23.244;2023-04-10T12:28:17;94032.81;;;9.97;79.48
9277;BME280;4676;42.678;23.244;2023-04-10T12:30:49;94048.72;;;9.56;95.81
9277;BME280;4676;42.678;23.244;2023-04-10T12:33:21;94052.34;;;8.77;100.00
9277;BME280;4676;42.678;23.244;2023-04-10T12:35:48;94054.63;;;8.34;100.00
9277;BME280;4676;42.678;23.244;2023-04-10T12:38:34;94042.16;;;7.75;100.00
9277;BME280;4676;42.678;23.244;2023-04-10T12:41:00;94050.50;;;7.77;100.00
9277;BME280;4676;42.678;23.244;2023-04-10T12:43:32;94052.22;;;7.77;100.00
9277;BME280;4676;42.678;23.244;2023-04-10T12:46:00;94035.19;;;7.56;100.00
9277;BME280;4676;42.678;23.244;2023-04-10T12:48:28;94055.66;;;7.45;100.00
9277;BME280;4676;42.678;23.244;2023-04-10T12:50:54;94012.00;;;6.86;100.00
9277;BME280;4676;42.678;23.244;2023-04-10T12:53:21;94054.34;;;7.02;100.00
9277;BME280;4676;42.678;23.244;2023-04-10T12:55:59;94066.13;;;7.00;100.00
9277;BME280;4676;42.678;23.244;2023-04-10T12:58:27;94058.66;;;6.97;100.00
9277;BME280;4676;42.678;23.244;2023-04-10T13:00:56;94044.19;;;7.06;100.00
9277;BME280;4676;42.678;23.244;2023-04-10T13:03:24;94041.34;;;7.18;100.00
9277;BME280;4676;42.678;23.244;2023-04-10T13:05:51;94030.69;;;7.37;100.00
9277;BME280;4676;42.678;23.244;2023-04-10T13:08:19;94029.25;;;7.57;100.00
9277;BME280;4676;42.678;23.244;2023-04-10T13:10:45;94027.66;;;7.82;100.00
9277;BME280;4676;42.678;23.244;2023-04-10T13:13:12;94018.88;;;7.93;100.00
9277;BME280;4676;42.678;23.244;2023-04-10T13:15:39;94024.00;;;8.18;100.00
9277;BME280;4676;42.678;23.244;2023-04-10T13:18:06;94009.38;;;8.54;100.00
9277;BME280;4676;42.678;23.244;2023-04-10T13:20:37;94022.50;;;8.88;100.00
9277;BME280;4676;42.678;23.244;2023-04-10T13:23:04;94011.78;;;9.05;100.00
9277;BME280;4676;42.678;23.244;2023-04-10T13:25:31;93990.97;;;9.22;100.00
9277;BME280;4676;42.678;23.244;2023-04-10T13:27:59;94006.44;;;9.36;100.00
9277;BME280;4676;42.678;23.244;2023-04-10T13:30:26;94006.31;;;9.62;100.00
9277;BME280;4676;42.678;23.244;2023-04-10T13:32:53;94004.50;;;9.66;100.00
9277;BME280;4676;42.678;23.244;2023-04-10T13:35:20;93999.94;;;9.52;100.00
9277;BME280;4676;42.678;23.244;2023-04-10T13:37:48;94003.22;;;9.54;100.00
9277;BME280;4676;42.678;23.244;2023-04-10T13:40:18;93997.59;;;9.69;100.00
9277;BME280;4676;42.678;23.244;2023-04-10T13:42:45;93997.31;;;9.98;100.00
9277;BME280;4676;42.678;23.244;2023-04-10T13:45:12;93992.53;;;10.13;100.00
9277;BME280;4676;42.678;23.244;2023-04-10T13:47:39;93991.81;;;10.31;100.00
9277;BME280;4676;42.678;23.244;2023-04-10T13:50:07;93990.88;;;10.53;100.00